sensor_id;sensor_type;location;lat;lon;timestamp;P1;durP1;ratioP1;P2;durP2;ratioP2
9330;SDS011;4704;50.470;12.072;2024-03-08T00:01:38;6.40;;;5.90;;
9330;SDS011;4704;50.470;12.072;2024-03-08T00:04:06;6.30;;;5.80;;
9330;SDS011;4704;50.470;12.072;2024-03-08T00:06:33;6.40;;;5.85;;
9330;SDS011;4704;50.470;12.072;2024-03-08T00:09:02;6.45;;;5.85;;
9330;SDS011;4704;50.470;12.072;2024-03-08T00:11:32;6.55;;;5.95;;
9330;SDS011;4704;50.470;12.072;2024-03-08T00:14:00;6.78;;;6.18;;
9330;SDS011;4704;50.470;12.072;2024-03-08T00:16:28;6.28;;;5.78;;
9330;SDS011;4704;50.470;12.072;2024-03-08T00:18:55;6.50;;;5.90;;
9330;SDS011;4704;50.470;12.072;2024-03-08T00:21:23;6.28;;;5.75;;
9330;SDS011;4704;50.470;12.072;2024-03-08T00:23:52;6.57;;;5.97;;
9330;SDS011;4704;50.470;12.072;2024-03-08T00:26:21;6.55;;;5.97;;
9330;SDS011;4704;50.470;12.072;2024-03-08T00:28:49;6.40;;;5.80;;
9330;SDS011;4704;50.470;12.072;2024-03-08T00:31:16;6.68;;;6.07;;
9330;SDS011;4704;50.470;12.072;2024-03-08T00:33:44;6.50;;;5.90;;
9330;SDS011;4704;50.470;12.072;2024-03-08T00:36:12;6.28;;;5.75;;
9330;SDS011;4704;50.470;12.072;2024-03-08T00:38:39;6.55;;;5.95;;
9330;SDS011;4704;50.470;12.072;2024-03-08T00:41:07;7.10;;;6.50;;
9330;SDS011;4704;50.470;12.072;2024-03-08T00:43:36;5.80;;;5.30;;
9330;SDS011;4704;50.470;12.072;2024-03-08T00:46:04;6.30;;;5.70;;
9330;SDS011;4704;50.470;12.072;2024-03-08T00:48:31;6.50;;;6.00;;
9330;SDS011;4704;50.470;12.072;2024-03-08T00:50:59;6.53;;;5.93;;
9330;SDS011;4704;50.470;12.072;2024-03-08T00:53:27;6.28;;;5.78;;
9330;SDS011;4704;50.470;12.072;2024-03-08T00:55:55;6.65;;;6.05;;
9330;SDS011;4704;50.470;12.072;2024-03-08T00:58:22;6.50;;;5.97;;
9330;SDS011;4704;50.470;12.072;2024-03-08T01:00:51;6.50;;;6.00;;
9330;SDS011;4704;50.470;12.072;2024-03-08T01:03:19;6.20;;;5.70;;
9330;SDS011;4704;50.470;12.072;2024-03-08T01:05:47;6.28;;;5.68;;
9330;SDS011;4704;50.470;12.072;2024-03-08T01:08:15;6.80;;;6.20;;
9330;SDS011;4704;50.470;12.072;2024-03-08T01:10:42;6.85;;;6.25;;
9330;SDS011;4704;50.470;12.072;2024-03-08T01:13:10;6.57;;;5.97;;
9330;SDS011;4704;50.470;12.072;2024-03-08T01:15:37;6.97;;;6.38;;
9330;SDS011;4704;50.470;12.072;2024-03-08T01:18:08;6.68;;;6.07;;
9330;SDS011;4704;50.470;12.072;2024-03-08T01:20:35;6.30;;;5.80;;
9330;SDS011;4704;50.470;12.072;2024-03-08T01:23:03;6.53;;;5.93;;
9330;SDS011;4704;50.470;12.072;2024-03-08T01:25:32;6.15;;;5.63;;
9330;SDS011;4704;50.470;12.072;2024-03-08T01:27:59;7.45;;;6.40;;
9330;SDS011;4704;50.470;12.072;2024-03-08T01:30:27;6.38;;;5.78;;
9330;SDS011;4704;50.470;12.072;2024-03-08T01:32:55;6.65;;;6.05;;
9330;SDS011;4704;50.470;12.072;2024-03-08T01:35:24;6.60;;;6.00;;
9330;SDS011;4704;50.470;12.072;2024-03-08T01:37:52;6.55;;;5.95;;
9330;SDS011;4704;50.470;12.072;2024-03-08T01:40:20;6.22;;;5.72;;
9330;SDS011;4704;50.470;12.072;2024-03-08T01:42:48;6.55;;;6.05;;
9330;SDS011;4704;50.470;12.072;2024-03-08T01:45:15;6.28;;;5.68;;
9330;SDS011;4704;50.470;12.072;2024-03-08T01:47:43;6.53;;;5.93;;
9330;SDS011;4704;50.470;12.072;2024-03-08T01:50:13;6.60;;;6.00;;
9330;SDS011;4704;50.470;12.072;2024-03-08T01:52:42;6.13;;;5.63;;
9330;SDS011;4704;50.470;12.072;2024-03-08T01:55:10;6.82;;;6.22;;
9330;SDS011;4704;50.470;12.072;2024-03-08T01:57:39;6.80;;;6.20;;
9330;SDS011;4704;50.470;12.072;2024-03-08T02:00:08;6.10;;;5.60;;
9330;SDS011;4704;50.470;12.072;2024-03-08T02:02:36;6.55;;;5.95;;
9330;SDS011;4704;50.470;12.072;2024-03-08T02:05:05;6.40;;;5.90;;
9330;SDS011;4704;50.470;12.072;2024-03-08T02:07:33;6.15;;;5.57;;
9330;SDS011;4704;50.470;12.072;2024-03-08T02:10:03;6.40;;;5.80;;
9330;SDS011;4704;50.470;12.072;2024-03-08T02:12:31;6.75;;;6.15;;
9330;SDS011;4704;50.470;12.072;2024-03-08T02:14:59;7.15;;;6.50;;
9330;SDS011;4704;50.470;12.072;2024-03-08T02:17:26;6.32;;;5.72;;
9330;SDS011;4704;50.470;12.072;2024-03-08T02:19:55;6.72;;;6.13;;
9330;SDS011;4704;50.470;12.072;2024-03-08T02:22:24;6.60;;;6.00;;
9330;SDS011;4704;50.470;12.072;2024-03-08T02:24:52;6.40;;;5.80;;
9330;SDS011;4704;50.470;12.072;2024-03-08T02:27:23;6.57;;;5.97;;
9330;SDS011;4704;50.470;12.072;2024-03-08T02:29:50;6.57;;;5.97;;
9330;SDS011;4704;50.470;12.072;2024-03-08T02:32:20;7.15;;;6.50;;
9330;SDS011;4704;50.470;12.072;2024-03-08T02:34:48;6.53;;;5.97;;
9330;SDS011;4704;50.470;12.072;2024-03-08T02:37:16;6.72;;;6.13;;
9330;SDS011;4704;50.470;12.072;2024-03-08T02:39:45;6.72;;;6.13;;
9330;SDS011;4704;50.470;12.072;2024-03-08T02:42:12;6.38;;;5.78;;
9330;SDS011;4704;50.470;12.072;2024-03-08T02:44:42;6.00;;;5.50;;
9330;SDS011;4704;50.470;12.072;2024-03-08T02:47:10;6.93;;;6.32;;
9330;SDS011;4704;50.470;12.072;2024-03-08T02:49:37;6.85;;;6.25;;
9330;SDS011;4704;50.470;12.072;2024-03-08T02:52:05;6.43;;;5.82;;
9330;SDS011;4704;50.470;12.072;2024-03-08T02:54:33;6.15;;;5.65;;
9330;SDS011;4704;50.470;12.072;2024-03-08T02:57:03;6.40;;;5.80;;
9330;SDS011;4704;50.470;12.072;2024-03-08T02:59:32;6.53;;;5.93;;
9330;SDS011;4704;50.470;12.072;2024-03-08T03:02:00;7.07;;;6.47;;
9330;SDS011;4704;50.470;12.072;2024-03-08T03:04:28;7.47;;;6.88;;
9330;SDS011;4704;50.470;12.072;2024-03-08T03:06:56;6.70;;;6.00;;
9330;SDS011;4704;50.470;12.072;2024-03-08T03:09:23;7.00;;;6.40;;
9330;SDS011;4704;50.470;12.072;2024-03-08T03:11:53;6.32;;;5.72;;
9330;SDS011;4704;50.470;12.072;2024-03-08T03:14:22;6.32;;;5.82;;
9330;SDS011;4704;50.470;12.072;2024-03-08T03:16:52;6.53;;;5.93;;
9330;SDS011;4704;50.470;12.072;2024-03-08T03:19:19;6.90;;;6.30;;
9330;SDS011;4704;50.470;12.072;2024-03-08T03:21:47;6.60;;;5.90;;
9330;SDS011;4704;50.470;12.072;2024-03-08T03:24:14;6.40;;;5.80;;
9330;SDS011;4704;50.470;12.072;2024-03-08T03:26:43;6.57;;;5.97;;
9330;SDS011;4704;50.470;12.072;2024-03-08T03:29:11;6.60;;;6.00;;
9330;SDS011;4704;50.470;12.072;2024-03-08T03:31:40;7.03;;;6.43;;
9330;SDS011;4704;50.470;12.072;2024-03-08T03:34:08;6.82;;;6.22;;
9330;SDS011;4704;50.470;12.072;2024-03-08T03:36:35;6.28;;;5.72;;
9330;SDS011;4704;50.470;12.072;2024-03-08T03:39:07;6.35;;;5.75;;
9330;SDS011;4704;50.470;12.072;2024-03-08T03:41:38;6.38;;;5.82;;
9330;SDS011;4704;50.470;12.072;2024-03-08T03:44:05;6.78;;;6.07;;
9330;SDS011;4704;50.470;12.072;2024-03-08T03:46:33;6.47;;;5.88;;
9330;SDS011;4704;50.470;12.072;2024-03-08T03:49:02;6.47;;;5.88;;
9330;SDS011;4704;50.470;12.072;2024-03-08T03:51:30;6.63;;;6.03;;
9330;SDS011;4704;50.470;12.072;2024-03-08T03:53:57;6.82;;;6.15;;
9330;SDS011;4704;50.470;12.072;2024-03-08T03:56:25;6.75;;;6.15;;
9330;SDS011;4704;50.470;12.072;2024-03-08T03:58:53;6.38;;;5.88;;
9330;SDS011;4704;50.470;12.072;2024-03-08T04:01:21;6.45;;;5.85;;
9330;SDS011;4704;50.470;12.072;2024-03-08T04:03:49;6.45;;;5.85;;
9330;SDS011;4704;50.470;12.072;2024-03-08T04:06:18;6.22;;;5.63;;
9330;SDS011;4704;50.470;12.072;2024-03-08T04:08:45;5.95;;;5.45;;
9330;SDS011;4704;50.470;12.072;2024-03-08T04:11:13;6.70;;;6.10;;
9330;SDS011;4704;50.470;12.072;2024-03-08T04:13:42;6.30;;;5.70;;
9330;SDS011;4704;50.470;12.072;2024-03-08T04:16:10;6.93;;;6.32;;
9330;SDS011;4704;50.470;12.072;2024-03-08T04:18:37;6.63;;;6.03;;
9330;SDS011;4704;50.470;12.072;2024-03-08T04:21:05;6.55;;;5.95;;
9330;SDS011;4704;50.470;12.072;2024-03-08T04:23:34;6.72;;;6.13;;
9330;SDS011;4704;50.470;12.072;2024-03-08T04:26:02;7.05;;;6.45;;
9330;SDS011;4704;50.470;12.072;2024-03-08T04:28:32;6.55;;;5.95;;
9330;SDS011;4704;50.470;12.072;2024-03-08T04:30:59;7.10;;;6.47;;
9330;SDS011;4704;50.470;12.072;2024-03-08T04:33:27;6.82;;;6.22;;
9330;SDS011;4704;50.470;12.072;2024-03-08T04:35:54;6.45;;;5.85;;
9330;SDS011;4704;50.470;12.072;2024-03-08T04:38:23;7.32;;;6.63;;
9330;SDS011;4704;50.470;12.072;2024-03-08T04:40:52;6.80;;;6.20;;
9330;SDS011;4704;50.470;12.072;2024-03-08T04:43:20;6.57;;;5.97;;
9330;SDS011;4704;50.470;12.072;2024-03-08T04:45:50;6.80;;;6.20;;
9330;SDS011;4704;50.470;12.072;2024-03-08T04:48:18;6.43;;;5.85;;
9330;SDS011;4704;50.470;12.072;2024-03-08T04:50:46;7.28;;;6.57;;
9330;SDS011;4704;50.470;12.072;2024-03-08T04:53:14;6.22;;;5.72;;
9330;SDS011;4704;50.470;12.072;2024-03-08T04:55:43;6.70;;;6.10;;
9330;SDS011;4704;50.470;12.072;2024-03-08T04:58:12;7.20;;;6.50;;
9330;SDS011;4704;50.470;12.072;2024-03-08T05:00:39;6.93;;;6.22;;
9330;SDS011;4704;50.470;12.072;2024-03-08T05:03:07;7.00;;;6.40;;
9330;SDS011;4704;50.470;12.072;2024-03-08T05:05:34;7.40;;;6.70;;
9330;SDS011;4704;50.470;12.072;2024-03-08T05:08:01;6.72;;;6.13;;
9330;SDS011;4704;50.470;12.072;2024-03-08T05:10:29;6.78;;;6.18;;
9330;SDS011;4704;50.470;12.072;2024-03-08T05:12:57;6.55;;;5.97;;
9330;SDS011;4704;50.470;12.072;2024-03-08T05:15:26;6.70;;;6.10;;
9330;SDS011;4704;50.470;12.072;2024-03-08T05:17:53;7.15;;;6.55;;
9330;SDS011;4704;50.470;12.072;2024-03-08T05:20:23;6.55;;;5.95;;
9330;SDS011;4704;50.470;12.072;2024-03-08T05:22:51;6.50;;;5.90;;
9330;SDS011;4704;50.470;12.072;2024-03-08T05:25:18;7.15;;;6.45;;
9330;SDS011;4704;50.470;12.072;2024-03-08T05:27:46;6.80;;;6.20;;
9330;SDS011;4704;50.470;12.072;2024-03-08T05:30:13;6.82;;;6.22;;
9330;SDS011;4704;50.470;12.072;2024-03-08T05:32:42;6.85;;;6.15;;
9330;SDS011;4704;50.470;12.072;2024-03-08T05:35:09;7.22;;;6.57;;
9330;SDS011;4704;50.470;12.072;2024-03-08T05:37:38;6.80;;;6.20;;
9330;SDS011;4704;50.470;12.072;2024-03-08T05:40:06;6.45;;;5.85;;
9330;SDS011;4704;50.470;12.072;2024-03-08T05:42:34;6.68;;;6.07;;
9330;SDS011;4704;50.470;12.072;2024-03-08T05:45:02;6.70;;;6.00;;
9330;SDS011;4704;50.470;12.072;2024-03-08T05:47:31;7.00;;;6.40;;
9330;SDS011;4704;50.470;12.072;2024-03-08T05:50:00;6.68;;;6.07;;
9330;SDS011;4704;50.470;12.072;2024-03-08T05:52:28;7.13;;;6.53;;
9330;SDS011;4704;50.470;12.072;2024-03-08T05:54:56;6.95;;;6.35;;
9330;SDS011;4704;50.470;12.072;2024-03-08T05:57:23;7.15;;;6.45;;
9330;SDS011;4704;50.470;12.072;2024-03-08T05:59:52;6.50;;;5.90;;
9330;SDS011;4704;50.470;12.072;2024-03-08T06:02:19;6.75;;;6.15;;
9330;SDS011;4704;50.470;12.072;2024-03-08T06:04:46;6.40;;;5.80;;
9330;SDS011;4704;50.470;12.072;2024-03-08T06:07:16;7.20;;;6.50;;
9330;SDS011;4704;50.470;12.072;2024-03-08T06:09:45;7.18;;;6.47;;
9330;SDS011;4704;50.470;12.072;2024-03-08T06:12:13;6.80;;;6.20;;
9330;SDS011;4704;50.470;12.072;2024-03-08T06:14:43;6.50;;;5.90;;
9330;SDS011;4704;50.470;12.072;2024-03-08T06:17:11;7.47;;;6.78;;
9330;SDS011;4704;50.470;12.072;2024-03-08T06:19:38;7.10;;;6.50;;
9330;SDS011;4704;50.470;12.072;2024-03-08T06:22:06;7.40;;;6.70;;
9330;SDS011;4704;50.470;12.072;2024-03-08T06:24:36;7.20;;;6.50;;
9330;SDS011;4704;50.470;12.072;2024-03-08T06:27:03;6.65;;;6.05;;
9330;SDS011;4704;50.470;12.072;2024-03-08T06:29:31;6.80;;;6.20;;
9330;SDS011;4704;50.470;12.072;2024-03-08T06:31:58;7.25;;;6.55;;
9330;SDS011;4704;50.470;12.072;2024-03-08T06:34:25;7.53;;;6.82;;
9330;SDS011;4704;50.470;12.072;2024-03-08T06:36:53;6.60;;;6.00;;
9330;SDS011;4704;50.470;12.072;2024-03-08T06:39:26;7.25;;;6.55;;
9330;SDS011;4704;50.470;12.072;2024-03-08T06:41:56;6.97;;;6.32;;
9330;SDS011;4704;50.470;12.072;2024-03-08T06:44:25;7.00;;;6.38;;
9330;SDS011;4704;50.470;12.072;2024-03-08T06:46:52;7.32;;;6.70;;
9330;SDS011;4704;50.470;12.072;2024-03-08T06:49:20;6.28;;;5.68;;
9330;SDS011;4704;50.470;12.072;2024-03-08T06:51:47;7.28;;;6.57;;
9330;SDS011;4704;50.470;12.072;2024-03-08T06:54:14;6.70;;;6.00;;
9330;SDS011;4704;50.470;12.072;2024-03-08T06:56:42;6.65;;;6.05;;
9330;SDS011;4704;50.470;12.072;2024-03-08T06:59:11;7.25;;;6.65;;
9330;SDS011;4704;50.470;12.072;2024-03-08T07:01:38;7.40;;;6.05;;
9330;SDS011;4704;50.470;12.072;2024-03-08T07:04:06;7.15;;;6.45;;
9330;SDS011;4704;50.470;12.072;2024-03-08T07:06:33;6.88;;;6.22;;
9330;SDS011;4704;50.470;12.072;2024-03-08T07:09:01;7.00;;;6.40;;
9330;SDS011;4704;50.470;12.072;2024-03-08T07:11:29;6.75;;;6.15;;
9330;SDS011;4704;50.470;12.072;2024-03-08T07:13:57;7.10;;;6.45;;
9330;SDS011;4704;50.470;12.072;2024-03-08T07:16:29;7.18;;;6.45;;
9330;SDS011;4704;50.470;12.072;2024-03-08T07:18:57;7.00;;;6.40;;
9330;SDS011;4704;50.470;12.072;2024-03-08T07:21:24;6.38;;;5.85;;
9330;SDS011;4704;50.470;12.072;2024-03-08T07:23:51;6.53;;;5.93;;
9330;SDS011;4704;50.470;12.072;2024-03-08T07:26:40;7.07;;;6.47;;
9330;SDS011;4704;50.470;12.072;2024-03-08T07:29:07;6.90;;;6.30;;
9330;SDS011;4704;50.470;12.072;2024-03-08T07:31:36;7.40;;;6.72;;
9330;SDS011;4704;50.470;12.072;2024-03-08T07:34:15;6.75;;;6.15;;
9330;SDS011;4704;50.470;12.072;2024-03-08T07:36:43;7.55;;;6.85;;
9330;SDS011;4704;50.470;12.072;2024-03-08T07:39:10;7.35;;;6.68;;
9330;SDS011;4704;50.470;12.072;2024-03-08T07:41:38;7.30;;;6.60;;
9330;SDS011;4704;50.470;12.072;2024-03-08T07:44:06;6.75;;;6.15;;
9330;SDS011;4704;50.470;12.072;2024-03-08T07:46:35;7.28;;;6.53;;
9330;SDS011;4704;50.470;12.072;2024-03-08T07:49:03;6.97;;;6.38;;
9330;SDS011;4704;50.470;12.072;2024-03-08T07:51:31;7.30;;;6.60;;
9330;SDS011;4704;50.470;12.072;2024-03-08T07:54:00;7.35;;;6.65;;
9330;SDS011;4704;50.470;12.072;2024-03-08T07:56:29;6.80;;;6.20;;
9330;SDS011;4704;50.470;12.072;2024-03-08T07:58:56;6.78;;;6.18;;
9330;SDS011;4704;50.470;12.072;2024-03-08T08:01:24;7.53;;;6.82;;
9330;SDS011;4704;50.470;12.072;2024-03-08T08:03:53;7.05;;;6.45;;
9330;SDS011;4704;50.470;12.072;2024-03-08T08:06:21;7.43;;;6.65;;
9330;SDS011;4704;50.470;12.072;2024-03-08T08:08:49;7.70;;;7.00;;
9330;SDS011;4704;50.470;12.072;2024-03-08T08:11:16;7.40;;;6.70;;
9330;SDS011;4704;50.470;12.072;2024-03-08T08:13:44;7.28;;;6.65;;
9330;SDS011;4704;50.470;12.072;2024-03-08T08:16:11;6.85;;;6.15;;
9330;SDS011;4704;50.470;12.072;2024-03-08T08:18:39;6.40;;;5.85;;
9330;SDS011;4704;50.470;12.072;2024-03-08T08:21:08;7.13;;;6.45;;
9330;SDS011;4704;50.470;12.072;2024-03-08T08:23:36;6.63;;;5.97;;
9330;SDS011;4704;50.470;12.072;2024-03-08T08:26:03;7.05;;;6.45;;
9330;SDS011;4704;50.470;12.072;2024-03-08T08:28:32;7.20;;;6.50;;
9330;SDS011;4704;50.470;12.072;2024-03-08T08:31:00;6.72;;;6.03;;
9330;SDS011;4704;50.470;12.072;2024-03-08T08:33:29;7.13;;;6.50;;
9330;SDS011;4704;50.470;12.072;2024-03-08T08:35:57;6.80;;;6.18;;
9330;SDS011;4704;50.470;12.072;2024-03-08T08:38:26;6.63;;;6.03;;
9330;SDS011;4704;50.470;12.072;2024-03-08T08:40:53;7.10;;;6.40;;
9330;SDS011;4704;50.470;12.072;2024-03-08T08:43:21;7.25;;;6.57;;
9330;SDS011;4704;50.470;12.072;2024-03-08T08:45:50;6.97;;;6.38;;
9330;SDS011;4704;50.470;12.072;2024-03-08T08:48:19;7.35;;;6.65;;
9330;SDS011;4704;50.470;12.072;2024-03-08T08:50:50;7.35;;;6.65;;
9330;SDS011;4704;50.470;12.072;2024-03-08T08:53:17;6.88;;;6.28;;
9330;SDS011;4704;50.470;12.072;2024-03-08T08:55:46;6.95;;;6.35;;
9330;SDS011;4704;50.470;12.072;2024-03-08T08:58:14;7.25;;;6.57;;
9330;SDS011;4704;50.470;12.072;2024-03-08T09:00:41;7.63;;;6.93;;
9330;SDS011;4704;50.470;12.072;2024-03-08T09:03:09;6.93;;;6.28;;
9330;SDS011;4704;50.470;12.072;2024-03-08T09:05:37;7.57;;;6.88;;
9330;SDS011;4704;50.470;12.072;2024-03-08T09:08:05;7.45;;;6.75;;
9330;SDS011;4704;50.470;12.072;2024-03-08T09:10:33;7.47;;;6.78;;
9330;SDS011;4704;50.470;12.072;2024-03-08T09:13:02;7.50;;;6.78;;
9330;SDS011;4704;50.470;12.072;2024-03-08T09:15:31;7.72;;;6.95;;
9330;SDS011;4704;50.470;12.072;2024-03-08T09:17:59;7.10;;;6.50;;
9330;SDS011;4704;50.470;12.072;2024-03-08T09:20:26;7.53;;;6.82;;
9330;SDS011;4704;50.470;12.072;2024-03-08T09:22:54;6.93;;;6.32;;
9330;SDS011;4704;50.470;12.072;2024-03-08T09:25:22;7.70;;;7.00;;
9330;SDS011;4704;50.470;12.072;2024-03-08T09:27:50;7.85;;;7.07;;
9330;SDS011;4704;50.470;12.072;2024-03-08T09:30:19;7.43;;;6.72;;
9330;SDS011;4704;50.470;12.072;2024-03-08T09:32:47;7.00;;;6.40;;
9330;SDS011;4704;50.470;12.072;2024-03-08T09:35:16;7.45;;;6.75;;
9330;SDS011;4704;50.470;12.072;2024-03-08T09:37:43;7.40;;;6.72;;
9330;SDS011;4704;50.470;12.072;2024-03-08T09:40:12;7.70;;;6.90;;
9330;SDS011;4704;50.470;12.072;2024-03-08T09:42:40;7.85;;;7.05;;
9330;SDS011;4704;50.470;12.072;2024-03-08T09:45:09;7.88;;;7.13;;
9330;SDS011;4704;50.470;12.072;2024-03-08T09:47:38;7.53;;;6.82;;
9330;SDS011;4704;50.470;12.072;2024-03-08T09:50:06;7.80;;;7.00;;
9330;SDS011;4704;50.470;12.072;2024-03-08T09:52:35;7.93;;;7.13;;
9330;SDS011;4704;50.470;12.072;2024-03-08T09:55:04;7.63;;;6.93;;
9330;SDS011;4704;50.470;12.072;2024-03-08T09:57:31;7.85;;;7.05;;
9330;SDS011;4704;50.470;12.072;2024-03-08T09:59:59;7.70;;;6.90;;
9330;SDS011;4704;50.470;12.072;2024-03-08T10:02:26;7.15;;;6.50;;
9330;SDS011;4704;50.470;12.072;2024-03-08T10:04:55;8.02;;;7.22;;
9330;SDS011;4704;50.470;12.072;2024-03-08T10:07:24;7.18;;;6.47;;
9330;SDS011;4704;50.470;12.072;2024-03-08T10:09:52;7.35;;;6.70;;
9330;SDS011;4704;50.470;12.072;2024-03-08T10:12:20;7.20;;;6.50;;
9330;SDS011;4704;50.470;12.072;2024-03-08T10:14:47;7.25;;;6.55;;
9330;SDS011;4704;50.470;12.072;2024-03-08T10:17:14;7.35;;;6.53;;
9330;SDS011;4704;50.470;12.072;2024-03-08T10:19:49;8.40;;;7.60;;
9330;SDS011;4704;50.470;12.072;2024-03-08T10:22:18;7.90;;;7.20;;
9330;SDS011;4704;50.470;12.072;2024-03-08T10:24:46;7.57;;;6.88;;
9330;SDS011;4704;50.470;12.072;2024-03-08T10:27:16;7.63;;;6.88;;
9330;SDS011;4704;50.470;12.072;2024-03-08T10:29:45;7.90;;;7.10;;
9330;SDS011;4704;50.470;12.072;2024-03-08T10:32:13;7.38;;;6.68;;
9330;SDS011;4704;50.470;12.072;2024-03-08T10:34:40;7.88;;;7.18;;
9330;SDS011;4704;50.470;12.072;2024-03-08T10:37:12;7.30;;;6.60;;
9330;SDS011;4704;50.470;12.072;2024-03-08T10:39:45;7.63;;;6.82;;
9330;SDS011;4704;50.470;12.072;2024-03-08T10:42:19;7.95;;;7.20;;
9330;SDS011;4704;50.470;12.072;2024-03-08T10:44:49;7.50;;;6.70;;
9330;SDS011;4704;50.470;12.072;2024-03-08T10:47:22;7.43;;;6.72;;
9330;SDS011;4704;50.470;12.072;2024-03-08T10:49:55;7.10;;;6.40;;
9330;SDS011;4704;50.470;12.072;2024-03-08T10:52:29;7.03;;;6.32;;
9330;SDS011;4704;50.470;12.072;2024-03-08T10:54:59;7.75;;;7.00;;
9330;SDS011;4704;50.470;12.072;2024-03-08T10:57:28;7.05;;;6.45;;
9330;SDS011;4704;50.470;12.072;2024-03-08T10:59:56;7.35;;;6.65;;
9330;SDS011;4704;50.470;12.072;2024-03-08T11:02:25;7.07;;;6.18;;
9330;SDS011;4704;50.470;12.072;2024-03-08T11:04:53;7.53;;;6.82;;
9330;SDS011;4704;50.470;12.072;2024-03-08T11:07:21;7.57;;;6.78;;
9330;SDS011;4704;50.470;12.072;2024-03-08T11:09:51;7.88;;;6.95;;
9330;SDS011;4704;50.470;12.072;2024-03-08T11:12:20;7.60;;;6.80;;
9330;SDS011;4704;50.470;12.072;2024-03-08T11:14:50;7.38;;;6.53;;
9330;SDS011;4704;50.470;12.072;2024-03-08T11:17:25;7.47;;;6.68;;
9330;SDS011;4704;50.470;12.072;2024-03-08T11:19:55;7.57;;;6.88;;
9330;SDS011;4704;50.470;12.072;2024-03-08T11:22:22;7.50;;;6.80;;
9330;SDS011;4704;50.470;12.072;2024-03-08T11:24:52;7.45;;;6.70;;
9330;SDS011;4704;50.470;12.072;2024-03-08T11:27:21;7.88;;;7.18;;
9330;SDS011;4704;50.470;12.072;2024-03-08T11:30:01;7.88;;;6.70;;
9330;SDS011;4704;50.470;12.072;2024-03-08T11:32:36;7.10;;;6.40;;
9330;SDS011;4704;50.470;12.072;2024-03-08T11:35:05;7.65;;;6.95;;
9330;SDS011;4704;50.470;12.072;2024-03-08T11:37:34;7.57;;;6.88;;
9330;SDS011;4704;50.470;12.072;2024-03-08T11:40:02;7.15;;;6.45;;
9330;SDS011;4704;50.470;12.072;2024-03-08T11:42:31;7.47;;;6.78;;
9330;SDS011;4704;50.470;12.072;2024-03-08T11:44:58;7.85;;;7.05;;
9330;SDS011;4704;50.470;12.072;2024-03-08T11:47:26;7.80;;;7.10;;
9330;SDS011;4704;50.470;12.072;2024-03-08T11:49:54;7.20;;;6.50;;
9330;SDS011;4704;50.470;12.072;2024-03-08T11:52:21;7.40;;;6.70;;
9330;SDS011;4704;50.470;12.072;2024-03-08T11:54:52;7.30;;;6.60;;
9330;SDS011;4704;50.470;12.072;2024-03-08T11:57:22;6.75;;;6.15;;
9330;SDS011;4704;50.470;12.072;2024-03-08T11:59:51;7.30;;;6.25;;
9330;SDS011;4704;50.470;12.072;2024-03-08T12:02:18;7.20;;;6.50;;
9330;SDS011;4704;50.470;12.072;2024-03-08T12:04:46;7.28;;;6.57;;
9330;SDS011;4704;50.470;12.072;2024-03-08T12:07:14;6.68;;;6.05;;
9330;SDS011;4704;50.470;12.072;2024-03-08T12:09:44;6.72;;;5.90;;
9330;SDS011;4704;50.470;12.072;2024-03-08T12:12:13;7.07;;;6.38;;
9330;SDS011;4704;50.470;12.072;2024-03-08T12:14:42;7.78;;;7.07;;
9330;SDS011;4704;50.470;12.072;2024-03-08T12:17:12;7.05;;;6.35;;
9330;SDS011;4704;50.470;12.072;2024-03-08T12:19:39;7.78;;;6.97;;
9330;SDS011;4704;50.470;12.072;2024-03-08T12:22:07;7.47;;;6.68;;
9330;SDS011;4704;50.470;12.072;2024-03-08T12:24:35;7.10;;;6.40;;
9330;SDS011;4704;50.470;12.072;2024-03-08T12:27:17;7.22;;;6.53;;
9330;SDS011;4704;50.470;12.072;2024-03-08T12:29:44;7.78;;;6.97;;
9330;SDS011;4704;50.470;12.072;2024-03-08T12:32:14;7.28;;;6.57;;
9330;SDS011;4704;50.470;12.072;2024-03-08T12:34:41;7.10;;;6.47;;
9330;SDS011;4704;50.470;12.072;2024-03-08T12:37:10;7.65;;;6.65;;
9330;SDS011;4704;50.470;12.072;2024-03-08T12:39:40;6.95;;;6.28;;
9330;SDS011;4704;50.470;12.072;2024-03-08T12:42:07;6.60;;;6.00;;
9330;SDS011;4704;50.470;12.072;2024-03-08T12:44:35;7.55;;;6.85;;
9330;SDS011;4704;50.470;12.072;2024-03-08T12:47:08;7.30;;;6.60;;
9330;SDS011;4704;50.470;12.072;2024-03-08T12:49:37;7.20;;;6.50;;
9330;SDS011;4704;50.470;12.072;2024-03-08T12:52:08;7.47;;;6.68;;
9330;SDS011;4704;50.470;12.072;2024-03-08T12:54:37;7.97;;;7.05;;
9330;SDS011;4704;50.470;12.072;2024-03-08T12:57:04;7.72;;;6.95;;
9330;SDS011;4704;50.470;12.072;2024-03-08T12:59:33;6.70;;;6.10;;
9330;SDS011;4704;50.470;12.072;2024-03-08T13:02:01;7.32;;;6.70;;
9330;SDS011;4704;50.470;12.072;2024-03-08T13:04:28;7.10;;;6.40;;
9330;SDS011;4704;50.470;12.072;2024-03-08T13:06:58;7.85;;;7.07;;
9330;SDS011;4704;50.470;12.072;2024-03-08T13:09:26;7.50;;;6.80;;
9330;SDS011;4704;50.470;12.072;2024-03-08T13:11:54;6.82;;;6.20;;
9330;SDS011;4704;50.470;12.072;2024-03-08T13:14:23;6.90;;;6.20;;
9330;SDS011;4704;50.470;12.072;2024-03-08T13:16:51;8.15;;;7.32;;
9330;SDS011;4704;50.470;12.072;2024-03-08T13:19:20;7.30;;;6.60;;
9330;SDS011;4704;50.470;12.072;2024-03-08T13:21:47;6.97;;;6.28;;
9330;SDS011;4704;50.470;12.072;2024-03-08T13:24:17;7.85;;;6.95;;
9330;SDS011;4704;50.470;12.072;2024-03-08T13:26:45;8.05;;;7.25;;
9330;SDS011;4704;50.470;12.072;2024-03-08T13:29:12;7.07;;;6.43;;
9330;SDS011;4704;50.470;12.072;2024-03-08T13:31:40;8.00;;;7.20;;
9330;SDS011;4704;50.470;12.072;2024-03-08T13:34:07;7.45;;;6.75;;
9330;SDS011;4704;50.470;12.072;2024-03-08T13:36:36;7.68;;;6.97;;
9330;SDS011;4704;50.470;12.072;2024-03-08T13:39:09;7.90;;;7.20;;
9330;SDS011;4704;50.470;12.072;2024-03-08T13:41:41;7.93;;;7.22;;
9330;SDS011;4704;50.470;12.072;2024-03-08T13:44:10;8.02;;;7.22;;
9330;SDS011;4704;50.470;12.072;2024-03-08T13:46:37;7.43;;;6.68;;
9330;SDS011;4704;50.470;12.072;2024-03-08T13:49:05;7.82;;;7.05;;
9330;SDS011;4704;50.470;12.072;2024-03-08T13:51:34;8.00;;;6.95;;
9330;SDS011;4704;50.470;12.072;2024-03-08T13:54:02;8.00;;;7.25;;
9330;SDS011;4704;50.470;12.072;2024-03-08T13:56:31;7.60;;;6.85;;
9330;SDS011;4704;50.470;12.072;2024-03-08T13:59:00;6.93;;;6.22;;
9330;SDS011;4704;50.470;12.072;2024-03-08T14:01:28;7.65;;;6.95;;
9330;SDS011;4704;50.470;12.072;2024-03-08T14:03:55;8.43;;;7.63;;
9330;SDS011;4704;50.470;12.072;2024-03-08T14:06:23;8.02;;;7.22;;
9330;SDS011;4704;50.470;12.072;2024-03-08T14:08:50;7.35;;;6.65;;
9330;SDS011;4704;50.470;12.072;2024-03-08T14:11:22;7.60;;;6.75;;
9330;SDS011;4704;50.470;12.072;2024-03-08T14:13:49;7.55;;;6.85;;
9330;SDS011;4704;50.470;12.072;2024-03-08T14:16:18;7.85;;;7.15;;
9330;SDS011;4704;50.470;12.072;2024-03-08T14:18:47;8.00;;;7.20;;
9330;SDS011;4704;50.470;12.072;2024-03-08T14:21:15;7.45;;;6.75;;
9330;SDS011;4704;50.470;12.072;2024-03-08T14:23:43;7.90;;;7.20;;
9330;SDS011;4704;50.470;12.072;2024-03-08T14:26:13;7.97;;;7.18;;
9330;SDS011;4704;50.470;12.072;2024-03-08T14:28:41;7.85;;;7.15;;
9330;SDS011;4704;50.470;12.072;2024-03-08T14:31:10;7.53;;;6.82;;
9330;SDS011;4704;50.470;12.072;2024-03-08T14:33:39;7.80;;;7.10;;
9330;SDS011;4704;50.470;12.072;2024-03-08T14:36:08;8.68;;;7.18;;
9330;SDS011;4704;50.470;12.072;2024-03-08T14:38:38;7.35;;;6.65;;
9330;SDS011;4704;50.470;12.072;2024-03-08T14:41:06;7.57;;;6.88;;
9330;SDS011;4704;50.470;12.072;2024-03-08T14:43:33;7.35;;;6.65;;
9330;SDS011;4704;50.470;12.072;2024-03-08T14:51:40;8.27;;;7.47;;
9330;SDS011;4704;50.470;12.072;2024-03-08T14:54:07;8.32;;;7.53;;
9330;SDS011;4704;50.470;12.072;2024-03-08T14:56:35;7.57;;;6.88;;
9330;SDS011;4704;50.470;12.072;2024-03-08T14:59:03;8.25;;;7.40;;
9330;SDS011;4704;50.470;12.072;2024-03-08T15:01:31;7.93;;;7.20;;
9330;SDS011;4704;50.470;12.072;2024-03-08T15:04:01;8.38;;;7.50;;
9330;SDS011;4704;50.470;12.072;2024-03-08T15:06:33;7.93;;;7.13;;
9330;SDS011;4704;50.470;12.072;2024-03-08T15:09:03;7.57;;;6.82;;
9330;SDS011;4704;50.470;12.072;2024-03-08T15:11:37;8.23;;;7.43;;
9330;SDS011;4704;50.470;12.072;2024-03-08T15:14:05;7.97;;;7.18;;